Time;durP1;ratioP1;P1;durP2;ratioP2;P2;SDS_P1;SDS_P2;PMS_P1;PMS_P2;Temp;Humidity;BMP_temperature;BMP_pressure;BME280_temperature;BME280_humidity;BME280_pressure;Samples;Min_cycle;Max_cycle;Signal;HPM_P1;HPM_P2
2023/12/02 00:02:26;;;;;;;159.53;46.17;;;;;;;-5.15;100.00;99243.13;4233216;28;20231;-66
2023/12/02 00:04:52;;;;;;;166.07;47.97;;;;;;;-4.99;100.00;99248.47;4224931;28;20233;-65
2023/12/02 00:07:21;;;;;;;167.33;50.03;;;;;;;-4.99;99.77;99236.16;4215994;28;20300;-65
2023/12/02 00:09:50;;;;;;;180.57;50.60;;;;;;;-5.13;100.00;99235.97;4221285;28;20232;-66
2023/12/02 00:12:16;;;;;;;164.13;49.07;;;;;;;-5.20;100.00;99224.88;4230921;28;20238;-68
2023/12/02 00:14:43;;;;;;;173.43;49.07;;;;;;;-5.30;100.00;99223.63;4221546;28;20281;-65
2023/12/02 00:17:10;;;;;;;175.43;49.30;;;;;;;-5.28;100.00;99233.19;4239668;28;21238;-67
2023/12/02 00:19:37;;;;;;;159.80;46.47;;;;;;;-5.17;100.00;99235.28;4270770;28;20243;-66
2023/12/02 00:22:05;;;;;;;165.07;46.23;;;;;;;-5.23;100.00;99240.88;4218028;28;22120;-63
2023/12/02 00:24:32;;;;;;;176.37;49.43;;;;;;;-5.11;100.00;99242.91;4220396;28;20237;-67
2023/12/02 00:26:59;;;;;;;168.03;50.43;;;;;;;-5.12;100.00;99240.31;4219419;28;21524;-64
2023/12/02 00:29:26;;;;;;;173.87;48.90;;;;;;;-5.27;100.00;99242.81;4220925;28;20446;-64
2023/12/02 00:31:52;;;;;;;178.53;50.10;;;;;;;-5.37;100.00;99238.06;4220442;28;20239;-67
2023/12/02 00:34:19;;;;;;;174.10;50.30;;;;;;;-5.65;100.00;99245.53;4227406;28;20398;-67
2023/12/02 00:36:46;;;;;;;175.67;49.03;;;;;;;-5.45;100.00;99244.56;4233738;28;21811;-65
2023/12/02 00:39:13;;;;;;;163.33;51.27;;;;;;;-5.43;100.00;99248.00;4226636;28;21100;-67
2023/12/02 00:41:40;;;;;;;161.20;48.87;;;;;;;-5.38;100.00;99255.69;4229070;28;20658;-67
2023/12/02 00:44:06;;;;;;;162.13;48.63;;;;;;;-5.25;100.00;99254.13;4219855;28;20271;-65
2023/12/02 00:46:33;;;;;;;165.87;48.57;;;;;;;-5.32;99.95;99242.19;4231311;28;20302;-66
2023/12/02 00:49:00;;;;;;;166.07;50.30;;;;;;;-5.22;99.99;99254.94;4220009;28;20239;-64
2023/12/02 00:51:28;;;;;;;171.83;47.67;;;;;;;-5.26;100.00;99255.06;4230381;28;21242;-65
2023/12/02 00:53:55;;;;;;;155.40;48.07;;;;;;;-5.25;100.00;99258.56;4223203;28;21140;-65
2023/12/02 00:56:22;;;;;;;157.33;48.20;;;;;;;-5.25;100.00;99254.13;4238571;28;26362;-64
2023/12/02 00:58:49;;;;;;;168.63;49.73;;;;;;;-5.32;100.00;99243.94;4223956;28;23210;-66
2023/12/02 01:01:16;;;;;;;168.43;47.60;;;;;;;-5.28;100.00;99242.88;4226680;28;20608;-67
2023/12/02 01:03:43;;;;;;;186.60;50.03;;;;;;;-5.46;100.00;99240.22;4227615;28;20645;-67
2023/12/02 01:06:09;;;;;;;161.80;46.30;;;;;;;-5.47;100.00;99242.94;4225958;28;20257;-66
2023/12/02 01:08:37;;;;;;;176.60;50.07;;;;;;;-5.38;100.00;99231.06;4227417;28;20328;-65
2023/12/02 01:11:03;;;;;;;183.07;50.13;;;;;;;-5.35;100.00;99223.03;4222205;28;21865;-66
2023/12/02 01:13:30;;;;;;;180.37;49.90;;;;;;;-5.35;100.00;99225.66;4221183;28;22736;-64
2023/12/02 01:15:57;;;;;;;179.03;50.63;;;;;;;-5.29;100.00;99228.84;4227186;28;23553;-65
2023/12/02 01:18:24;;;;;;;182.87;50.67;;;;;;;-5.21;99.86;99223.19;4222243;28;20235;-66
2023/12/02 01:20:51;;;;;;;171.03;49.20;;;;;;;-5.25;99.81;99209.28;4227257;28;21276;-64
2023/12/02 01:23:18;;;;;;;166.37;48.43;;;;;;;-5.30;100.00;99205.16;4214799;28;20239;-68
2023/12/02 01:25:44;;;;;;;170.00;49.00;;;;;;;-5.32;100.00;99209.66;4211527;28;20248;-65
2023/12/02 01:28:11;;;;;;;166.83;48.60;;;;;;;-5.29;100.00;99199.84;4224776;28;20239;-67
2023/12/02 01:30:37;;;;;;;173.90;47.20;;;;;;;-5.40;100.00;99199.50;4232509;28;20327;-64
2023/12/02 01:33:04;;;;;;;171.00;49.57;;;;;;;-5.32;100.00;99199.97;4225422;28;20238;-66
2023/12/02 01:35:31;;;;;;;161.17;47.13;;;;;;;-5.25;100.00;99196.09;4222750;28;20247;-68
2023/12/02 01:37:58;;;;;;;164.17;47.97;;;;;;;-5.14;100.00;99186.78;4224266;28;20681;-65
2023/12/02 01:40:24;;;;;;;171.90;48.10;;;;;;;-5.09;100.00;99184.75;4224080;28;20235;-66
2023/12/02 01:42:51;;;;;;;167.97;49.63;;;;;;;-5.13;100.00;99191.97;4225559;28;25389;-67
2023/12/02 01:45:18;;;;;;;168.27;49.20;;;;;;;-5.14;100.00;99187.63;4222765;28;22953;-64
2023/12/02 01:47:46;;;;;;;180.73;49.03;;;;;;;-5.13;100.00;99196.38;4223730;28;20263;-66
2023/12/02 01:50:15;;;;;;;154.73;47.83;;;;;;;-5.21;100.00;99203.88;4214193;28;21541;-65
2023/12/02 01:52:42;;;;;;;153.60;43.33;;;;;;;-5.21;100.00;99219.69;4221048;28;20235;-67
2023/12/02 01:55:09;;;;;;;150.23;40.30;;;;;;;-5.02;100.00;99216.97;4220050;28;20527;-65
2023/12/02 01:57:36;;;;;;;159.67;42.27;;;;;;;-5.14;100.00;99227.22;4222529;28;20376;-65
2023/12/02 02:00:03;;;;;;;137.33;37.13;;;;;;;-5.02;100.00;99230.19;4222355;28;23580;-64
2023/12/02 02:02:31;;;;;;;129.40;37.93;;;;;;;-5.03;100.00;99237.22;4222180;28;20441;-66
2023/12/02 02:04:57;;;;;;;143.27;39.20;;;;;;;-4.98;100.00;99234.34;4226021;28;20326;-66
2023/12/02 02:07:25;;;;;;;138.40;36.83;;;;;;;-5.03;100.00;99234.59;4239744;28;20287;-64
2023/12/02 02:09:52;;;;;;;145.47;37.50;;;;;;;-4.86;100.00;99233.69;4232824;28;21799;-65
2023/12/02 02:12:19;;;;;;;133.77;34.80;;;;;;;-4.80;100.00;99237.81;4229847;28;20236;-64
2023/12/02 02:14:46;;;;;;;118.70;33.63;;;;;;;-4.66;100.00;99231.81;4220304;28;20391;-66
2023/12/02 02:17:13;;;;;;;139.27;35.23;;;;;;;-4.74;100.00;99228.75;4230418;28;22135;-63
2023/12/02 02:19:39;;;;;;;118.07;35.07;;;;;;;-4.74;100.00;99236.66;4238490;28;20349;-67
2023/12/02 02:22:06;;;;;;;111.87;32.17;;;;;;;-4.70;100.00;99238.19;4224030;28;20247;-64
2023/12/02 02:24:33;;;;;;;127.10;35.23;;;;;;;-4.71;100.00;99233.84;4218851;28;20239;-64
2023/12/02 02:27:00;;;;;;;134.03;37.43;;;;;;;-4.86;100.00;99222.31;4219846;28;20229;-67
2023/12/02 02:29:27;;;;;;;127.00;35.30;;;;;;;-4.86;100.00;99231.06;4228105;28;20232;-63
2023/12/02 02:31:53;;;;;;;129.50;35.63;;;;;;;-4.86;100.00;99227.59;4221004;28;20240;-65
2023/12/02 02:34:20;;;;;;;121.87;32.53;;;;;;;-4.78;100.00;99217.47;4223073;28;20236;-63
2023/12/02 02:36:47;;;;;;;124.20;36.60;;;;;;;-4.66;100.00;99216.81;4230481;28;20240;-63
2023/12/02 02:39:14;;;;;;;126.63;36.30;;;;;;;-4.66;100.00;99230.03;4228004;28;20240;-66
2023/12/02 02:41:40;;;;;;;143.97;36.33;;;;;;;-4.54;100.00;99230.34;4235887;28;21762;-65
2023/12/02 02:44:07;;;;;;;137.10;35.70;;;;;;;-4.62;100.00;99228.06;4221389;28;25645;-65
2023/12/02 02:46:34;;;;;;;139.03;36.90;;;;;;;-4.65;100.00;99244.94;4223155;28;20329;-66
2023/12/02 02:49:00;;;;;;;122.73;34.67;;;;;;;-4.65;100.00;99247.59;4229903;28;20344;-64
2023/12/02 02:51:27;;;;;;;147.50;38.87;;;;;;;-4.72;100.00;99256.75;4226656;28;21961;-66
2023/12/02 02:53:54;;;;;;;149.90;39.00;;;;;;;-4.81;100.00;99266.03;4218460;28;20228;-65
2023/12/02 02:56:21;;;;;;;140.77;37.03;;;;;;;-4.71;100.00;99271.66;4234980;28;20239;-66
2023/12/02 02:58:47;;;;;;;143.73;37.57;;;;;;;-4.57;100.00;99265.66;4224586;28;20267;-65
2023/12/02 03:01:14;;;;;;;144.10;37.00;;;;;;;-4.67;100.00;99265.28;4227791;28;20258;-66
2023/12/02 03:03:41;;;;;;;137.70;35.80;;;;;;;-4.74;100.00;99260.41;4223711;28;20351;-63
2023/12/02 03:06:08;;;;;;;133.83;34.50;;;;;;;-4.67;100.00;99260.00;4229314;28;25097;-65
2023/12/02 03:08:35;;;;;;;128.63;33.97;;;;;;;-4.65;100.00;99255.50;4223141;28;20236;-63
2023/12/02 03:11:02;;;;;;;116.23;33.47;;;;;;;-4.67;100.00;99249.44;4224038;28;21772;-64
2023/12/02 03:13:29;;;;;;;114.50;32.70;;;;;;;-4.54;100.00;99247.00;4220127;28;22965;-65
2023/12/02 03:15:55;;;;;;;145.33;35.90;;;;;;;-4.73;100.00;99248.94;4221623;28;22544;-65
2023/12/02 03:18:24;;;;;;;121.67;33.93;;;;;;;-4.74;100.00;99242.78;4221507;28;20227;-65
2023/12/02 03:20:51;;;;;;;135.90;36.27;;;;;;;-4.85;100.00;99240.69;4222155;28;20604;-65
2023/12/02 03:23:17;;;;;;;146.10;39.13;;;;;;;-4.89;100.00;99225.97;4228069;28;20290;-68
2023/12/02 03:25:44;;;;;;;146.80;36.27;;;;;;;-4.85;100.00;99218.75;4218302;28;20363;-66
2023/12/02 03:28:12;;;;;;;146.07;37.87;;;;;;;-4.82;100.00;99219.44;4223049;28;20255;-65
2023/12/02 03:30:39;;;;;;;139.00;35.53;;;;;;;-4.74;100.00;99208.44;4219121;28;20322;-65
2023/12/02 03:33:06;;;;;;;142.80;37.70;;;;;;;-4.78;100.00;99196.38;4228831;28;20331;-66
2023/12/02 03:35:32;;;;;;;145.73;38.33;;;;;;;-4.73;100.00;99188.19;4233804;28;20776;-64
2023/12/02 03:37:59;;;;;;;164.50;38.97;;;;;;;-4.86;100.00;99194.09;4227186;28;20449;-65
2023/12/02 03:40:26;;;;;;;150.07;39.07;;;;;;;-4.85;100.00;99197.63;4222330;28;22897;-64
2023/12/02 03:42:53;;;;;;;164.43;41.47;;;;;;;-4.91;100.00;99193.50;4223637;28;20462;-67
2023/12/02 03:45:19;;;;;;;158.73;40.20;;;;;;;-4.83;100.00;99182.53;4218799;28;23669;-64
2023/12/02 03:47:46;;;;;;;158.83;38.87;;;;;;;-4.72;100.00;99187.28;4215973;28;20248;-62
2023/12/02 03:50:13;;;;;;;160.23;39.53;;;;;;;-4.84;100.00;99194.06;4222744;28;20239;-67
2023/12/02 03:52:43;;;;;;;157.20;40.00;;;;;;;-4.94;100.00;99191.00;4220423;28;20251;-63
2023/12/02 03:55:09;;;;;;;152.00;37.67;;;;;;;-4.85;100.00;99201.09;4220776;28;20669;-64
2023/12/02 03:57:36;;;;;;;156.83;38.73;;;;;;;-4.85;100.00;99206.38;4225062;28;20591;-64
2023/12/02 04:00:10;;;;;;;161.57;37.10;;;;;;;-4.85;100.00;99203.75;4219387;28;20241;-67
2023/12/02 04:02:38;;;;;;;141.90;36.13;;;;;;;-4.69;100.00;99209.09;4228787;28;20271;-66
2023/12/02 04:05:08;;;;;;;137.57;36.93;;;;;;;-4.68;100.00;99209.94;4216703;28;20356;-64
2023/12/02 04:07:36;;;;;;;139.10;35.43;;;;;;;-4.86;100.00;99214.38;4220423;28;20514;-64
2023/12/02 04:10:03;;;;;;;150.53;37.07;;;;;;;-4.98;100.00;99216.72;4226409;28;20231;-66
2023/12/02 04:12:30;;;;;;;135.60;33.63;;;;;;;-5.02;100.00;99212.53;4227987;28;22920;-66
2023/12/02 04:14:57;;;;;;;144.73;35.00;;;;;;;-4.91;100.00;99217.25;4223274;28;20550;-64
2023/12/02 04:17:28;;;;;;;141.20;34.67;;;;;;;-4.72;100.00;99209.22;4224997;28;23078;-63
2023/12/02 04:19:54;;;;;;;149.83;37.30;;;;;;;-4.84;100.00;99215.16;4218286;28;20695;-67
2023/12/02 04:22:21;;;;;;;162.43;36.67;;;;;;;-4.91;100.00;99213.78;4223960;28;20232;-63
2023/12/02 04:24:48;;;;;;;130.90;33.63;;;;;;;-4.87;100.00;99207.41;4223540;28;20227;-66
2023/12/02 04:27:15;;;;;;;141.70;32.83;;;;;;;-4.73;100.00;99210.16;4223262;28;23496;-67
2023/12/02 04:29:42;;;;;;;143.40;31.37;;;;;;;-4.70;100.00;99209.16;4231923;28;20224;-66
2023/12/02 04:32:08;;;;;;;127.73;31.30;;;;;;;-4.77;100.00;99217.38;4218344;28;21342;-65
2023/12/02 04:34:35;;;;;;;123.23;29.93;;;;;;;-4.74;100.00;99221.66;4226013;28;21657;-66
2023/12/02 04:37:02;;;;;;;120.83;29.37;;;;;;;-4.68;100.00;99220.50;4219416;28;20232;-65
2023/12/02 04:39:29;;;;;;;121.47;30.50;;;;;;;-4.75;100.00;99229.66;4221935;28;20265;-64
2023/12/02 04:41:56;;;;;;;129.77;30.47;;;;;;;-4.84;100.00;99233.66;4226747;28;20236;-65
2023/12/02 04:44:22;;;;;;;117.30;29.37;;;;;;;-4.82;100.00;99239.69;4221238;28;20986;-67
2023/12/02 04:46:49;;;;;;;108.90;26.97;;;;;;;-4.93;100.00;99238.47;4222383;28;20305;-66
2023/12/02 04:49:16;;;;;;;111.33;27.37;;;;;;;-4.70;100.00;99223.22;4221936;28;20240;-66
2023/12/02 04:51:42;;;;;;;127.33;29.23;;;;;;;-4.68;100.00;99216.03;4225341;28;20290;-64
2023/12/02 04:54:10;;;;;;;104.10;27.03;;;;;;;-4.63;100.00;99207.88;4220669;28;20301;-64
2023/12/02 04:56:37;;;;;;;100.80;25.93;;;;;;;-4.59;100.00;99216.50;4220712;28;20236;-66
2023/12/02 04:59:04;;;;;;;105.20;26.53;;;;;;;-4.73;100.00;99218.09;4219187;28;20516;-66
2023/12/02 05:01:31;;;;;;;98.23;26.40;;;;;;;-4.63;100.00;99203.47;4220561;28;21624;-65
2023/12/02 05:03:58;;;;;;;103.67;26.90;;;;;;;-4.59;100.00;99198.00;4228917;28;20363;-66
2023/12/02 05:06:25;;;;;;;107.27;27.30;;;;;;;-4.63;100.00;99198.19;4220879;28;20297;-64
2023/12/02 05:08:52;;;;;;;109.37;26.57;;;;;;;-4.67;100.00;99199.28;4219248;28;20294;-64
2023/12/02 05:11:21;;;;;;;118.53;25.97;;;;;;;-4.67;100.00;99201.91;4219526;28;25530;-64
2023/12/02 05:13:52;;;;;;;105.63;25.00;;;;;;;-4.68;100.00;99204.66;4219487;28;20357;-64
2023/12/02 05:16:19;;;;;;;109.90;26.13;;;;;;;-4.80;100.00;99203.50;4221955;28;23432;-65
2023/12/02 05:18:46;;;;;;;97.80;25.03;;;;;;;-4.80;100.00;99195.59;4224478;28;21085;-64
2023/12/02 05:21:13;;;;;;;101.90;25.00;;;;;;;-4.78;100.00;99204.28;4223471;28;20634;-66
2023/12/02 05:23:40;;;;;;;101.90;23.87;;;;;;;-4.69;100.00;99206.44;4218119;28;20236;-64
2023/12/02 05:26:08;;;;;;;109.43;25.77;;;;;;;-4.71;100.00;99208.31;4218049;28;20236;-66
2023/12/02 05:28:35;;;;;;;88.40;24.50;;;;;;;-4.73;100.00;99212.81;4229061;28;20345;-65
2023/12/02 05:31:02;;;;;;;113.97;26.47;;;;;;;-4.78;100.00;99205.13;4222225;28;20295;-64
2023/12/02 05:33:29;;;;;;;117.80;27.13;;;;;;;-4.81;100.00;99197.38;4226726;28;20234;-65
2023/12/02 05:35:55;;;;;;;105.77;27.60;;;;;;;-4.77;100.00;99191.00;4220287;28;21511;-67
2023/12/02 05:38:22;;;;;;;117.17;27.83;;;;;;;-4.78;100.00;99193.72;4225406;28;20309;-64
2023/12/02 05:40:49;;;;;;;110.70;29.23;;;;;;;-4.62;100.00;99196.38;4230615;28;20722;-65
2023/12/02 05:43:16;;;;;;;118.77;30.00;;;;;;;-4.69;100.00;99193.25;4222248;28;20303;-64
2023/12/02 05:45:42;;;;;;;128.90;30.10;;;;;;;-4.65;100.00;99197.41;4222004;28;20544;-65
2023/12/02 05:48:09;;;;;;;109.27;28.60;;;;;;;-4.61;100.00;99187.53;4214239;28;20237;-64
2023/12/02 05:50:36;;;;;;;116.10;27.83;;;;;;;-4.57;100.00;99188.22;4227360;28;20236;-64
2023/12/02 05:53:04;;;;;;;124.30;30.97;;;;;;;-4.44;100.00;99188.44;4219887;28;20340;-64
2023/12/02 05:55:31;;;;;;;120.20;29.03;;;;;;;-4.49;100.00;99188.66;4218273;28;21695;-67
2023/12/02 05:57:58;;;;;;;111.73;28.10;;;;;;;-4.57;100.00;99183.78;4220145;28;20240;-66
2023/12/02 06:00:24;;;;;;;113.00;29.13;;;;;;;-4.67;100.00;99193.16;4222138;28;20305;-64
2023/12/02 06:02:51;;;;;;;109.13;28.07;;;;;;;-4.66;100.00;99200.16;4226021;28;20233;-64
2023/12/02 06:05:18;;;;;;;108.73;27.13;;;;;;;-4.64;100.00;99195.59;4230421;28;20235;-68
2023/12/02 06:07:45;;;;;;;106.13;27.97;;;;;;;-4.73;100.00;99194.31;4219324;28;20350;-65
2023/12/02 06:10:11;;;;;;;127.20;29.83;;;;;;;-4.78;100.00;99199.00;4218867;28;22309;-67
2023/12/02 06:12:38;;;;;;;113.20;27.40;;;;;;;-4.81;100.00;99200.03;4224106;28;20312;-68
2023/12/02 06:15:06;;;;;;;101.23;26.53;;;;;;;-4.68;100.00;99207.28;4214802;28;20321;-65
2023/12/02 06:17:33;;;;;;;113.00;25.97;;;;;;;-4.56;100.00;99201.34;4226075;28;20239;-67
2023/12/02 06:20:00;;;;;;;117.00;27.63;;;;;;;-4.61;100.00;99200.75;4222990;28;20300;-66
2023/12/02 06:22:30;;;;;;;108.03;28.37;;;;;;;-4.61;100.00;99198.09;4221345;28;20227;-67
2023/12/02 06:24:56;;;;;;;115.47;28.17;;;;;;;-4.54;100.00;99201.28;4225000;28;20335;-68
2023/12/02 06:27:24;;;;;;;111.60;26.57;;;;;;;-4.49;100.00;99200.06;4233342;28;20548;-64
2023/12/02 06:29:50;;;;;;;102.83;26.47;;;;;;;-4.57;100.00;99202.28;4224792;28;20335;-66
2023/12/02 06:32:17;;;;;;;95.73;25.10;;;;;;;-4.55;100.00;99200.41;4221997;28;20295;-68
2023/12/02 06:34:44;;;;;;;95.50;25.60;;;;;;;-4.57;100.00;99189.06;4226344;28;20313;-66
2023/12/02 06:37:10;;;;;;;80.73;22.97;;;;;;;-4.46;100.00;99180.59;4231906;28;21115;-67
2023/12/02 06:39:37;;;;;;;88.83;22.03;;;;;;;-4.42;100.00;99194.47;4234507;28;20664;-68
2023/12/02 06:42:04;;;;;;;95.13;24.13;;;;;;;-4.42;100.00;99197.97;4228836;28;20267;-65
2023/12/02 06:44:31;;;;;;;93.27;23.60;;;;;;;-4.43;100.00;99206.81;4222192;28;20258;-68
2023/12/02 06:46:58;;;;;;;80.77;21.90;;;;;;;-4.48;100.00;99212.34;4226865;28;20231;-66
2023/12/02 06:49:25;;;;;;;76.10;22.20;;;;;;;-4.54;100.00;99212.69;4222613;28;20240;-66
2023/12/02 06:51:52;;;;;;;89.77;23.70;;;;;;;-4.51;100.00;99211.66;4226339;28;20243;-64
2023/12/02 06:54:19;;;;;;;96.77;24.63;;;;;;;-4.51;100.00;99215.19;4231588;28;20233;-65
2023/12/02 06:56:45;;;;;;;87.53;24.60;;;;;;;-4.42;100.00;99220.91;4228294;28;20234;-67
2023/12/02 06:59:12;;;;;;;95.00;23.93;;;;;;;-4.43;100.00;99224.47;4228255;28;20298;-64
2023/12/02 07:01:40;;;;;;;96.90;25.23;;;;;;;-4.49;100.00;99223.00;4231715;28;20618;-64
2023/12/02 07:04:06;;;;;;;99.70;26.47;;;;;;;-4.44;100.00;99225.41;4243394;28;20357;-65
2023/12/02 07:06:33;;;;;;;97.87;24.87;;;;;;;-4.50;100.00;99223.94;4257759;28;21454;-67
2023/12/02 07:09:00;;;;;;;105.07;27.77;;;;;;;-4.55;100.00;99223.34;4222017;28;25870;-68
2023/12/02 07:11:27;;;;;;;101.87;24.67;;;;;;;-4.53;100.00;99226.75;4244259;28;21772;-65
2023/12/02 07:13:54;;;;;;;110.13;27.17;;;;;;;-4.46;100.00;99234.25;4240318;28;20280;-65
2023/12/02 07:16:21;;;;;;;111.33;27.40;;;;;;;-4.44;100.00;99233.31;4220569;28;21918;-66
2023/12/02 07:18:48;;;;;;;107.47;27.23;;;;;;;-4.47;100.00;99240.47;4238038;28;20224;-65
2023/12/02 07:21:16;;;;;;;116.73;28.33;;;;;;;-4.49;100.00;99234.41;4236854;28;20345;-65
2023/12/02 07:23:44;;;;;;;117.37;28.30;;;;;;;-4.36;100.00;99237.25;4256008;28;22246;-67
2023/12/02 07:26:11;;;;;;;97.13;26.77;;;;;;;-4.41;100.00;99227.88;4255012;28;20310;-66
2023/12/02 07:28:38;;;;;;;104.40;27.70;;;;;;;-4.32;100.00;99230.00;4246441;28;20295;-65
2023/12/02 07:31:05;;;;;;;104.40;25.93;;;;;;;-4.26;100.00;99228.84;4237312;28;20238;-66
2023/12/02 07:33:32;;;;;;;113.53;26.20;;;;;;;-4.28;100.00;99231.56;4238107;28;22508;-66
2023/12/02 07:35:58;;;;;;;101.97;25.40;;;;;;;-4.21;100.00;99235.59;4244903;28;22134;-68
2023/12/02 07:38:25;;;;;;;102.97;26.10;;;;;;;-4.15;100.00;99237.03;4230964;28;20298;-65
2023/12/02 07:40:52;;;;;;;85.20;23.27;;;;;;;-4.04;100.00;99239.09;4249223;28;20251;-65
2023/12/02 07:43:19;;;;;;;92.90;24.87;;;;;;;-4.17;100.00;99223.91;4225465;28;20237;-67
2023/12/02 07:45:46;;;;;;;88.80;23.30;;;;;;;-4.05;100.00;99219.72;4235596;28;20934;-66
2023/12/02 07:48:12;;;;;;;90.63;24.13;;;;;;;-3.99;100.00;99221.19;4219712;28;20616;-64
2023/12/02 07:50:39;;;;;;;88.83;24.87;;;;;;;-4.02;100.00;99230.16;4246961;28;20235;-65
2023/12/02 07:53:06;;;;;;;100.77;25.93;;;;;;;-4.08;100.00;99222.56;4229481;28;20242;-65
2023/12/02 07:55:32;;;;;;;102.20;26.63;;;;;;;-4.09;100.00;99206.75;4222287;28;20235;-66
2023/12/02 07:58:00;;;;;;;102.70;26.23;;;;;;;-4.10;100.00;99205.94;4223823;28;20303;-66
2023/12/02 08:00:26;;;;;;;96.57;25.87;;;;;;;-4.02;100.00;99208.13;4228902;28;20499;-66
2023/12/02 08:02:53;;;;;;;109.43;27.50;;;;;;;-3.76;100.00;99221.69;4226620;28;20464;-64
2023/12/02 08:05:20;;;;;;;109.33;28.83;;;;;;;-3.88;100.00;99213.50;4224072;28;20569;-68
2023/12/02 08:07:51;;;;;;;107.40;27.87;;;;;;;-3.96;100.00;99215.72;4225024;28;21580;-65
2023/12/02 08:10:18;;;;;;;118.53;27.93;;;;;;;-3.93;100.00;99202.34;4224156;28;21121;-64
2023/12/02 08:12:45;;;;;;;115.50;28.23;;;;;;;-3.77;100.00;99202.31;4241543;28;22499;-67
2023/12/02 08:15:11;;;;;;;99.37;26.50;;;;;;;-3.82;100.00;99210.53;4222149;28;20246;-68
2023/12/02 08:17:38;;;;;;;109.97;28.47;;;;;;;-3.94;100.00;99219.13;4208372;28;22331;-66
2023/12/02 08:20:06;;;;;;;108.37;27.33;;;;;;;-3.77;100.00;99220.81;4219518;28;20438;-66
2023/12/02 08:22:33;;;;;;;118.13;28.37;;;;;;;-3.82;100.00;99230.81;4222614;28;20233;-67
2023/12/02 08:25:00;;;;;;;115.07;27.53;;;;;;;-3.80;100.00;99231.59;4235825;28;20247;-68
2023/12/02 08:27:27;;;;;;;102.27;27.23;;;;;;;-3.78;100.00;99239.44;4264650;28;20295;-67
2023/12/02 08:29:53;;;;;;;104.50;25.57;;;;;;;-3.85;100.00;99238.91;4236771;28;20241;-64
2023/12/02 08:32:20;;;;;;;103.33;26.23;;;;;;;-4.02;100.00;99246.00;4266487;28;20766;-66
2023/12/02 08:34:47;;;;;;;106.43;27.63;;;;;;;-3.94;100.00;99244.72;4229279;28;20236;-69
2023/12/02 08:37:13;;;;;;;118.33;27.07;;;;;;;-3.83;100.00;99244.97;4261743;28;20244;-66
2023/12/02 08:39:40;;;;;;;115.77;27.13;;;;;;;-3.84;100.00;99249.41;4236357;28;20232;-69
2023/12/02 08:42:07;;;;;;;109.03;28.03;;;;;;;-3.78;100.00;99245.59;4236795;28;20236;-67
2023/12/02 08:44:33;;;;;;;103.83;27.30;;;;;;;-3.85;100.00;99241.56;4226263;28;20388;-67
2023/12/02 08:47:01;;;;;;;111.57;26.67;;;;;;;-3.57;100.00;99259.38;4226490;28;23464;-68
2023/12/02 08:49:28;;;;;;;120.40;29.03;;;;;;;-3.73;100.00;99266.47;4228633;28;21644;-69
2023/12/02 08:51:56;;;;;;;114.53;27.50;;;;;;;-3.60;100.00;99274.56;4213550;28;20232;-68
2023/12/02 08:54:23;;;;;;;105.13;25.87;;;;;;;-3.37;100.00;99287.34;4227581;28;20236;-68
2023/12/02 08:56:51;;;;;;;110.93;28.13;;;;;;;-3.38;100.00;99290.09;4226677;28;23566;-66
2023/12/02 08:59:17;;;;;;;123.17;29.13;;;;;;;-3.48;100.00;99289.78;4231856;28;25516;-66
2023/12/02 09:01:44;;;;;;;108.47;27.93;;;;;;;-3.49;100.00;99290.72;4224415;28;20233;-67
2023/12/02 09:04:11;;;;;;;114.43;26.93;;;;;;;-3.38;100.00;99284.81;4218712;28;20240;-66
2023/12/02 09:06:38;;;;;;;106.93;27.67;;;;;;;-3.34;100.00;99286.31;4231533;28;21156;-66
2023/12/02 09:09:07;;;;;;;116.10;28.63;;;;;;;-3.46;100.00;99292.31;4212649;28;20227;-69
2023/12/02 09:11:34;;;;;;;111.57;28.37;;;;;;;-3.37;100.00;99279.41;4225528;28;20224;-68
2023/12/02 09:14:01;;;;;;;121.27;27.40;;;;;;;-3.24;100.00;99284.88;4221129;28;20232;-67
2023/12/02 09:16:30;;;;;;;122.53;26.87;;;;;;;-3.31;100.00;99275.56;4219840;28;20239;-67
2023/12/02 09:18:57;;;;;;;112.87;27.53;;;;;;;-3.29;100.00;99275.47;4223815;28;20272;-66
2023/12/02 09:21:35;;;;;;;109.77;28.93;;;;;;;-3.12;100.00;99264.78;4231753;28;20263;-67
2023/12/02 09:24:05;;;;;;;104.40;27.33;;;;;;;-3.11;100.00;99263.84;4216813;28;22483;-69
2023/12/02 09:26:40;;;;;;;98.20;27.13;;;;;;;-3.22;100.00;99260.94;4235989;28;20426;-65
2023/12/02 09:29:08;;;;;;;106.53;27.03;;;;;;;-3.09;100.00;99269.03;4218085;28;20784;-64
2023/12/02 09:31:35;;;;;;;111.00;27.00;;;;;;;-3.21;100.00;99268.78;4220990;28;20297;-65
2023/12/02 09:34:03;;;;;;;108.70;26.37;;;;;;;-3.11;100.00;99265.63;4229815;28;22397;-68
2023/12/02 09:36:39;;;;;;;110.10;27.63;;;;;;;-3.15;100.00;99256.16;4230729;28;20332;-66
2023/12/02 09:39:09;;;;;;;118.53;29.67;;;;;;;-3.00;100.00;99257.91;4219834;28;20230;-64
2023/12/02 09:41:50;;;;;;;130.47;30.13;;;;;;;-3.04;100.00;99251.06;4230714;28;23321;-68
2023/12/02 09:44:45;;;;;;;119.57;30.70;;;;;;;-3.03;100.00;99247.50;4220618;28;21660;-67
2023/12/02 09:47:19;;;;;;;115.33;30.07;;;;;;;-2.84;100.00;99241.13;4215250;28;20286;-67
2023/12/02 09:50:04;;;;;;;132.50;30.80;;;;;;;-2.87;99.31;99239.50;4231020;28;22992;-64
2023/12/02 09:52:49;;;;;;;136.17;33.77;;;;;;;-2.84;99.67;99246.41;4232433;28;20242;-67
2023/12/02 09:55:37;;;;;;;132.00;32.97;;;;;;;-2.89;99.26;99236.09;4222724;28;20417;-66
2023/12/02 09:58:24;;;;;;;131.07;34.10;;;;;;;-2.96;100.00;99226.81;4223313;28;20232;-66
2023/12/02 10:01:26;;;;;;;108.63;28.67;;;;;;;-2.86;99.47;99235.88;4223058;28;20882;-70
2023/12/02 10:04:05;;;;;;;112.93;27.90;;;;;;;-2.92;99.58;99254.78;4223280;28;25720;-67
2023/12/02 10:07:18;;;;;;;103.70;26.43;;;;;;;-2.67;98.63;99262.13;4228824;28;20238;-68
2023/12/02 10:10:13;;;;;;;97.60;26.57;;;;;;;-2.51;97.51;99258.53;4180334;28;20305;-63
2023/12/02 10:12:46;;;;;;;98.07;27.20;;;;;;;-2.76;98.11;99255.59;4235605;28;20299;-68
2023/12/02 10:15:16;;;;;;;111.07;27.00;;;;;;;-2.56;98.65;99267.63;4225462;28;20241;-66
2023/12/02 10:17:52;;;;;;;97.20;25.67;;;;;;;-2.47;98.03;99254.78;4221398;28;20277;-65
2023/12/02 10:20:26;;;;;;;94.13;25.83;;;;;;;-2.56;97.09;99230.53;4225509;28;20382;-69
2023/12/02 10:22:58;;;;;;;99.43;25.20;;;;;;;-2.77;97.13;99227.41;4229792;28;20235;-68
2023/12/02 10:25:35;;;;;;;81.67;25.20;;;;;;;-2.70;96.97;99217.28;4229120;28;20266;-64
2023/12/02 10:28:15;;;;;;;84.40;24.50;;;;;;;-2.85;97.63;99231.47;4225084;28;20293;-68
2023/12/02 10:30:50;;;;;;;99.13;26.73;;;;;;;-2.76;97.93;99229.09;4226507;28;21109;-65
2023/12/02 10:33:28;;;;;;;97.73;27.70;;;;;;;-2.66;97.01;99224.09;4225498;28;22192;-68
2023/12/02 10:36:00;;;;;;;101.53;27.67;;;;;;;-2.78;97.91;99211.59;4225039;28;20238;-65
2023/12/02 10:38:40;;;;;;;100.00;28.50;;;;;;;-2.72;97.81;99204.13;4234916;28;22115;-65
2023/12/02 10:41:24;;;;;;;107.53;28.43;;;;;;;-2.67;97.42;99195.91;4223853;28;20376;-65
2023/12/02 10:43:56;;;;;;;96.53;28.17;;;;;;;-2.66;96.24;99199.41;4216536;28;20263;-68
2023/12/02 10:46:25;;;;;;;103.57;29.63;;;;;;;-2.94;97.40;99216.94;4261511;28;21562;-67
2023/12/02 10:48:54;;;;;;;98.07;27.90;;;;;;;-3.01;98.41;99216.47;4222762;28;21112;-65
2023/12/02 10:51:23;;;;;;;106.87;28.97;;;;;;;-3.11;99.23;99213.53;4217860;28;20298;-67
2023/12/02 10:53:57;;;;;;;102.50;30.50;;;;;;;-2.86;98.38;99212.06;4223175;28;20237;-66
2023/12/02 10:56:26;;;;;;;106.27;29.87;;;;;;;-2.81;98.15;99211.78;4234595;28;20228;-66
2023/12/02 10:58:54;;;;;;;96.73;29.73;;;;;;;-2.79;98.00;99197.50;4230711;28;21800;-67
2023/12/02 11:01:37;;;;;;;96.07;28.93;;;;;;;-2.81;97.94;99190.59;4230042;28;21722;-65
2023/12/02 11:04:31;;;;;;;102.77;29.73;;;;;;;-2.81;98.49;99204.69;4209305;28;20243;-67
2023/12/02 11:07:03;;;;;;;99.90;28.93;;;;;;;-2.69;98.78;99239.31;4232934;28;20413;-65
2023/12/02 11:10:10;;;;;;;114.20;31.13;;;;;;;-2.64;97.84;99255.81;4230719;28;20256;-65
2023/12/02 11:12:54;;;;;;;97.70;30.53;;;;;;;-2.79;98.41;99257.56;4236455;28;21547;-64